Time;durP1;ratioP1;P1;durP2;ratioP2;P2;SDS_P1;SDS_P2;PMS_P1;PMS_P2;Temp;Humidity;BMP_temperature;BMP_pressure;BME280_temperature;BME280_humidity;BME280_pressure;Samples;Min_cycle;Max_cycle;Signal;HPM_P1;HPM_P2
2021/09/08 00:01:32;;;;;;;5.63;5.03;;;;;;;14.36;100.00;101556.59;4959489;28;20301;-77
2021/09/08 00:03:58;;;;;;;6.57;5.60;;;;;;;14.40;100.00;101552.19;4972428;28;20220;-76
2021/09/08 00:06:24;;;;;;;7.25;4.82;;;;;;;14.37;100.00;101545.34;4955430;28;20226;-77
2021/09/08 00:08:50;;;;;;;5.87;5.27;;;;;;;14.37;100.00;101553.56;4957156;28;20182;-76
2021/09/08 00:11:20;;;;;;;5.70;4.73;;;;;;;14.33;100.00;101552.47;4970493;28;20233;-76
2021/09/08 00:13:50;;;;;;;6.37;5.00;;;;;;;14.31;100.00;101543.72;5006263;28;20229;-76
2021/09/08 00:16:18;;;;;;;8.40;5.00;;;;;;;14.30;100.00;101544.84;4995765;28;20225;-77
2021/09/08 00:18:49;;;;;;;5.13;4.60;;;;;;;14.31;100.00;101543.72;4994367;28;20193;-76
2021/09/08 00:21:19;;;;;;;6.07;4.80;;;;;;;14.28;100.00;101541.56;4976554;28;20221;-76
2021/09/08 00:23:47;;;;;;;6.80;5.27;;;;;;;14.19;100.00;101539.63;4991784;28;20181;-75
2021/09/08 00:26:15;;;;;;;5.93;5.37;;;;;;;14.20;100.00;101551.41;4990625;28;20283;-76
2021/09/08 00:28:43;;;;;;;5.70;4.70;;;;;;;14.17;100.00;101546.47;4955200;28;20782;-76
2021/09/08 00:31:08;;;;;;;5.50;4.60;;;;;;;14.11;100.00;101533.91;4971070;28;20309;-77
2021/09/08 00:33:34;;;;;;;5.77;4.30;;;;;;;14.19;100.00;101539.63;4955348;28;20232;-76
2021/09/08 00:36:03;;;;;;;5.10;4.57;;;;;;;14.24;100.00;101543.19;4954846;28;20596;-77
2021/09/08 00:38:29;;;;;;;5.40;4.23;;;;;;;14.18;100.00;101545.41;4963051;28;20192;-76
2021/09/08 00:40:58;;;;;;;4.70;4.23;;;;;;;14.14;100.00;101547.00;4974101;28;20217;-76
2021/09/08 00:43:29;;;;;;;6.27;4.73;;;;;;;14.13;100.00;101539.91;4990674;28;20655;-77
2021/09/08 00:45:56;;;;;;;5.33;4.83;;;;;;;14.06;100.00;101539.38;4975149;28;20667;-76
2021/09/08 00:48:24;;;;;;;7.17;5.60;;;;;;;14.04;100.00;101536.09;4990155;28;20193;-76
2021/09/08 00:50:53;;;;;;;6.93;5.80;;;;;;;14.06;100.00;101542.09;4957869;28;20232;-78
2021/09/08 00:53:20;;;;;;;6.17;4.80;;;;;;;14.02;100.00;101532.81;4990800;28;20209;-76
2021/09/08 00:55:54;;;;;;;5.33;4.83;;;;;;;14.03;100.00;101529.81;4959247;28;20296;-76
2021/09/08 00:58:22;;;;;;;8.30;5.20;;;;;;;13.99;100.00;101538.78;4974553;28;20269;-76
2021/09/08 01:00:48;;;;;;;5.27;4.83;;;;;;;14.06;100.00;101531.16;4973984;28;20237;-77
2021/09/08 01:03:16;;;;;;;7.23;5.33;;;;;;;14.12;100.00;101530.06;4990374;28;20208;-76
2021/09/08 01:05:46;;;;;;;6.80;5.30;;;;;;;14.15;100.00;101532.25;4957811;28;20209;-77
2021/09/08 01:08:13;;;;;;;7.10;4.70;;;;;;;14.09;100.00;101533.38;4959075;28;20197;-77
2021/09/08 01:10:44;;;;;;;5.17;4.63;;;;;;;14.05;100.00;101533.09;4960086;28;20597;-76
2021/09/08 01:13:11;;;;;;;5.23;4.73;;;;;;;13.98;100.00;101537.16;4975001;28;20201;-75
2021/09/08 01:15:36;;;;;;;5.37;4.80;;;;;;;13.92;100.00;101528.13;4941732;28;20227;-77
2021/09/08 01:18:04;;;;;;;6.60;5.50;;;;;;;13.93;100.00;101531.69;4958266;28;20193;-77
2021/09/08 01:20:37;;;;;;;6.00;5.17;;;;;;;13.84;100.00;101533.31;4954008;28;20232;-76
2021/09/08 01:23:02;;;;;;;5.90;5.20;;;;;;;13.83;100.00;101531.69;4955754;28;20171;-76
2021/09/08 01:25:30;;;;;;;5.80;5.30;;;;;;;13.82;100.00;101530.03;4954371;28;20228;-77
2021/09/08 01:28:01;;;;;;;6.13;5.17;;;;;;;13.81;100.00;101530.31;4975641;28;20272;-78
2021/09/08 01:30:26;;;;;;;6.23;4.90;;;;;;;13.73;100.00;101523.47;4973311;28;20233;-78
2021/09/08 01:32:52;;;;;;;6.30;5.30;;;;;;;13.77;100.00;101524.56;4974380;28;20177;-77
2021/09/08 01:35:21;;;;;;;5.63;5.13;;;;;;;13.73;100.00;101528.94;4954316;28;20214;-76
2021/09/08 01:37:49;;;;;;;6.47;5.70;;;;;;;13.70;100.00;101532.22;4954687;28;20643;-77
2021/09/08 01:40:19;;;;;;;7.07;5.53;;;;;;;13.60;100.00;101526.72;4954031;28;20312;-76
2021/09/08 01:42:45;;;;;;;7.33;5.87;;;;;;;13.65;100.00;101524.00;4939521;28;20572;-77
2021/09/08 01:45:15;;;;;;;6.50;5.80;;;;;;;13.59;100.00;101522.38;4959693;28;20193;-77
2021/09/08 01:47:43;;;;;;;7.83;5.30;;;;;;;13.62;100.00;101527.28;4977934;28;20189;-77
2021/09/08 01:50:14;;;;;;;7.03;6.33;;;;;;;13.64;100.00;101525.09;4994463;28;20292;-76
2021/09/08 01:52:41;;;;;;;8.20;6.40;;;;;;;13.67;100.00;101524.56;4994223;28;20232;-77
2021/09/08 01:55:07;;;;;;;7.27;5.63;;;;;;;13.68;100.00;101518.03;4977549;28;20173;-76
2021/09/08 01:57:37;;;;;;;7.20;5.70;;;;;;;13.63;100.00;101511.75;4977278;28;20565;-78
2021/09/08 02:00:09;;;;;;;6.53;5.93;;;;;;;13.59;100.00;101508.72;4958021;28;20216;-77
2021/09/08 02:02:41;;;;;;;6.70;5.73;;;;;;;13.57;100.00;101518.25;4961246;28;20202;-78
2021/09/08 02:05:09;;;;;;;6.10;5.50;;;;;;;13.46;100.00;101514.72;4954037;28;20193;-76
2021/09/08 02:07:37;;;;;;;7.33;6.00;;;;;;;13.40;100.00;101517.69;4994411;28;20182;-77
2021/09/08 02:10:10;;;;;;;7.57;5.70;;;;;;;13.37;100.00;101515.50;4977044;28;20224;-76
2021/09/08 02:12:42;;;;;;;6.40;5.70;;;;;;;13.31;100.00;101513.84;4994054;28;20184;-76
2021/09/08 02:15:08;;;;;;;6.03;5.43;;;;;;;13.34;100.00;101510.59;4973693;28;20186;-79
2021/09/08 02:17:38;;;;;;;6.53;5.47;;;;;;;13.34;100.00;101512.50;4957963;28;20217;-78
2021/09/08 02:20:05;;;;;;;7.80;5.80;;;;;;;13.34;100.00;101509.78;4956919;28;20217;-77
2021/09/08 02:22:32;;;;;;;6.90;5.77;;;;;;;13.30;100.00;101511.41;4957558;28;20166;-79
2021/09/08 02:25:00;;;;;;;8.13;6.33;;;;;;;13.34;100.00;101516.03;4944563;28;20190;-78
2021/09/08 02:27:30;;;;;;;6.97;6.00;;;;;;;13.34;100.00;101509.78;4957612;28;20319;-76
2021/09/08 02:29:58;;;;;;;6.43;5.50;;;;;;;13.29;100.00;101505.09;4943577;28;20210;-78
2021/09/08 02:32:24;;;;;;;5.83;5.20;;;;;;;13.27;100.00;101501.00;4973342;28;20245;-76
2021/09/08 02:34:53;;;;;;;6.23;4.97;;;;;;;13.23;100.00;101498.00;4961668;28;20595;-76
2021/09/08 02:37:21;;;;;;;5.17;4.67;;;;;;;13.24;100.00;101496.09;4976203;28;20229;-76
2021/09/08 02:39:51;;;;;;;5.43;4.93;;;;;;;13.15;100.00;101492.25;4976643;28;20205;-76
2021/09/08 02:42:22;;;;;;;5.80;5.20;;;;;;;13.14;100.00;101490.59;4976427;28;20309;-76
2021/09/08 02:44:48;;;;;;;5.40;4.87;;;;;;;13.18;100.00;101503.44;4977465;28;20189;-76
2021/09/08 02:47:16;;;;;;;6.23;5.50;;;;;;;13.15;100.00;101498.53;4976165;28;20221;-76
2021/09/08 02:49:46;;;;;;;6.37;5.70;;;;;;;13.16;100.00;101500.16;4976250;28;20240;-76
2021/09/08 02:52:14;;;;;;;6.20;5.60;;;;;;;13.22;100.00;101499.09;4960993;28;20222;-76
2021/09/08 02:54:40;;;;;;;7.73;5.87;;;;;;;13.17;100.00;101493.63;4976676;28;20202;-77
2021/09/08 02:57:09;;;;;;;5.57;5.00;;;;;;;13.16;100.00;101489.25;4955398;28;20234;-76
2021/09/08 02:59:37;;;;;;;6.33;5.43;;;;;;;13.18;100.00;101487.06;4957131;28;20198;-75
2021/09/08 03:02:03;;;;;;;5.67;4.87;;;;;;;13.17;100.00;101490.91;4959840;28;20764;-78
2021/09/08 03:04:28;;;;;;;5.57;4.90;;;;;;;13.17;100.00;101482.72;4992509;28;20185;-76
2021/09/08 03:06:56;;;;;;;8.97;6.03;;;;;;;13.10;100.00;101484.06;4975715;28;20237;-79
2021/09/08 03:09:26;;;;;;;7.40;5.33;;;;;;;13.14;100.00;101491.41;4960601;28;20209;-75
2021/09/08 03:11:51;;;;;;;7.03;5.57;;;;;;;13.15;100.00;101490.34;4975105;28;20248;-80
2021/09/08 03:14:22;;;;;;;6.07;5.23;;;;;;;13.15;100.00;101489.53;4992459;28;20706;-76
2021/09/08 03:16:47;;;;;;;7.43;5.70;;;;;;;13.17;100.00;101490.09;4976159;28;20244;-75
2021/09/08 03:19:13;;;;;;;6.17;5.40;;;;;;;13.08;100.00;101483.50;4975106;28;20194;-75
2021/09/08 03:21:41;;;;;;;6.50;5.80;;;;;;;13.05;100.00;101481.31;4975277;28;20218;-76
2021/09/08 03:24:06;;;;;;;6.40;5.50;;;;;;;13.16;100.00;101482.97;4976452;28;20193;-76
2021/09/08 03:26:35;;;;;;;6.43;5.40;;;;;;;13.16;100.00;101477.53;4975291;28;20221;-79
2021/09/08 03:29:03;;;;;;;6.63;5.83;;;;;;;13.14;100.00;101485.97;4975990;28;20566;-76
2021/09/08 03:31:30;;;;;;;6.53;5.83;;;;;;;13.16;100.00;101474.78;4992147;28;20232;-78
2021/09/08 03:33:58;;;;;;;6.60;5.47;;;;;;;13.05;100.00;101475.03;4963891;28;20221;-76
2021/09/08 03:36:26;;;;;;;6.43;5.60;;;;;;;13.02;100.00;101476.41;4968501;28;20300;-77
2021/09/08 03:38:51;;;;;;;6.77;5.40;;;;;;;12.97;100.00;101472.84;4962318;28;20195;-78
2021/09/08 03:41:17;;;;;;;6.70;5.93;;;;;;;12.89;100.00;101476.91;4977053;28;20299;-76
2021/09/08 03:43:43;;;;;;;6.80;6.10;;;;;;;12.84;100.00;101468.69;4993470;28;20193;-79
2021/09/08 03:46:08;;;;;;;6.70;6.10;;;;;;;12.81;100.00;101473.84;4975513;28;20228;-76
2021/09/08 03:48:36;;;;;;;6.93;6.23;;;;;;;12.81;100.00;101474.66;4996530;28;20202;-76
2021/09/08 03:51:04;;;;;;;7.57;6.30;;;;;;;12.69;100.00;101468.59;4973462;28;20641;-76
2021/09/08 03:53:32;;;;;;;8.50;6.53;;;;;;;12.66;100.00;101467.50;4975469;28;20224;-76
2021/09/08 03:56:00;;;;;;;7.60;6.80;;;;;;;12.70;100.00;101467.50;4974778;28;20271;-76
2021/09/08 03:58:25;;;;;;;8.00;6.90;;;;;;;12.63;100.00;101459.84;4990832;28;20209;-77
2021/09/08 04:00:53;;;;;;;7.10;6.40;;;;;;;12.72;100.00;101459.88;4979130;28;20221;-78
2021/09/08 04:03:20;;;;;;;7.50;6.33;;;;;;;12.77;100.00;101462.63;4966867;28;20185;-76
2021/09/08 04:05:46;;;;;;;6.50;5.90;;;;;;;12.73;100.00;101466.97;5001612;28;20223;-76
2021/09/08 04:08:11;;;;;;;7.33;6.13;;;;;;;12.75;100.00;101464.00;4985394;28;20176;-77
2021/09/08 04:10:42;;;;;;;7.77;6.40;;;;;;;12.76;100.00;101452.84;4970399;28;20225;-76
2021/09/08 04:13:09;;;;;;;10.30;6.93;;;;;;;12.76;100.00;101455.56;4961543;28;20219;-75
2021/09/08 04:15:35;;;;;;;8.17;6.37;;;;;;;12.76;100.00;101460.16;4958275;28;20217;-74
2021/09/08 04:18:03;;;;;;;7.57;6.60;;;;;;;12.68;100.00;101453.31;4955256;28;20194;-76
2021/09/08 04:20:31;;;;;;;7.70;5.30;;;;;;;12.63;100.00;101457.94;4954901;28;20214;-77
2021/09/08 04:22:59;;;;;;;6.77;6.03;;;;;;;12.63;100.00;101451.66;4934601;28;20731;-77
2021/09/08 04:25:27;;;;;;;7.10;5.70;;;;;;;12.57;100.00;101450.81;4971069;28;20186;-76
2021/09/08 04:27:53;;;;;;;7.33;6.17;;;;;;;12.54;100.00;101440.44;4984202;28;20239;-76
2021/09/08 04:30:21;;;;;;;9.73;6.70;;;;;;;12.54;100.00;101450.53;4974397;28;20615;-76
2021/09/08 04:32:49;;;;;;;6.83;6.10;;;;;;;12.48;100.00;101457.06;4957010;28;20194;-74
2021/09/08 04:35:17;;;;;;;6.73;6.10;;;;;;;12.45;100.00;101457.56;4990259;28;20177;-76
2021/09/08 04:37:47;;;;;;;7.70;6.60;;;;;;;12.44;100.00;101461.41;4974411;28;20668;-76
2021/09/08 04:40:15;;;;;;;8.13;6.97;;;;;;;12.41;100.00;101456.47;4974314;28;20586;-76
2021/09/08 04:42:43;;;;;;;8.43;6.90;;;;;;;12.41;100.00;101451.81;4984981;28;20600;-76
2021/09/08 04:45:11;;;;;;;8.43;6.63;;;;;;;12.39;100.00;101443.09;4990424;28;20252;-77
2021/09/08 04:47:39;;;;;;;7.90;6.97;;;;;;;12.38;100.00;101451.53;4990660;28;20276;-75
2021/09/08 04:50:08;;;;;;;8.20;6.57;;;;;;;12.37;100.00;101455.34;4990260;28;20204;-75
2021/09/08 04:52:35;;;;;;;8.93;7.23;;;;;;;12.41;100.00;101464.63;4974810;28;20186;-76
2021/09/08 04:55:02;;;;;;;8.40;7.27;;;;;;;12.47;100.00;101455.41;4959033;28;20312;-76
2021/09/08 04:57:31;;;;;;;8.00;6.93;;;;;;;12.46;100.00;101454.59;4990017;28;20300;-77
2021/09/08 04:59:59;;;;;;;8.20;7.00;;;;;;;12.43;100.00;101454.28;4968600;28;20200;-78
2021/09/08 05:02:27;;;;;;;9.30;6.90;;;;;;;12.52;100.00;101458.97;4970750;28;20725;-81
2021/09/08 05:04:53;;;;;;;8.10;7.10;;;;;;;12.58;100.00;101446.19;4996733;28;20189;-76
2021/09/08 05:07:23;;;;;;;9.43;7.43;;;;;;;12.60;100.00;101453.03;5005911;28;20221;-76
2021/09/08 05:09:51;;;;;;;8.67;6.37;;;;;;;12.68;100.00;101454.44;4990353;28;20229;-76
2021/09/08 05:12:18;;;;;;;7.50;6.50;;;;;;;12.70;100.00;101450.34;4974503;28;20221;-78
2021/09/08 05:14:43;;;;;;;7.67;6.83;;;;;;;12.76;100.00;101452.84;4991062;28;20209;-76
2021/09/08 05:17:11;;;;;;;6.70;6.03;;;;;;;12.75;100.00;101453.91;4990395;28;20259;-76
2021/09/08 05:19:41;;;;;;;7.33;5.87;;;;;;;12.78;100.00;101447.94;4976959;28;20288;-78
2021/09/08 05:22:15;;;;;;;6.80;5.60;;;;;;;12.86;100.00;101455.63;4998702;28;20825;-80
2021/09/08 05:24:45;;;;;;;7.20;6.27;;;;;;;12.80;100.00;101448.50;4998692;28;20273;-78
2021/09/08 05:27:15;;;;;;;7.27;6.57;;;;;;;12.88;100.00;101453.44;4979464;28;20222;-76
2021/09/08 05:29:41;;;;;;;6.97;5.80;;;;;;;12.90;100.00;101462.16;4972598;28;20209;-75
2021/09/08 05:32:07;;;;;;;6.07;5.47;;;;;;;13.00;100.00;101450.47;4988451;28;20224;-76
2021/09/08 05:34:35;;;;;;;7.10;6.30;;;;;;;13.06;100.00;101454.84;4949693;28;20215;-77
2021/09/08 05:37:07;;;;;;;7.93;7.07;;;;;;;13.10;100.00;101454.06;4988916;28;20260;-77
2021/09/08 05:39:33;;;;;;;8.30;6.43;;;;;;;13.17;100.00;101452.69;4968327;28;20245;-78
2021/09/08 05:42:00;;;;;;;7.70;6.70;;;;;;;13.22;100.00;101449.16;4981841;28;20221;-76
2021/09/08 05:44:26;;;;;;;8.30;6.63;;;;;;;13.33;100.00;101454.38;4999732;28;20651;-76
2021/09/08 05:46:54;;;;;;;8.33;6.90;;;;;;;13.42;100.00;101460.09;4961246;28;20217;-77
2021/09/08 05:49:19;;;;;;;8.37;6.47;;;;;;;13.42;100.00;101454.66;4957560;28;20570;-78
2021/09/08 05:51:45;;;;;;;7.77;6.77;;;;;;;13.49;100.00;101466.94;4942797;28;20717;-77
2021/09/08 05:54:17;;;;;;;8.03;6.77;;;;;;;13.55;100.00;101461.22;4957862;28;20214;-78
2021/09/08 05:56:48;;;;;;;7.77;6.73;;;;;;;13.64;100.00;101464.22;5012611;28;20230;-79
2021/09/08 05:59:13;;;;;;;7.90;6.47;;;;;;;13.78;100.00;101466.13;5013894;28;20221;-78
2021/09/08 06:01:39;;;;;;;7.60;6.17;;;;;;;13.85;100.00;101462.03;4985785;28;20233;-78
2021/09/08 06:04:09;;;;;;;8.80;6.87;;;;;;;14.09;100.00;101460.41;4977615;28;20185;-78
2021/09/08 06:06:37;;;;;;;7.43;6.63;;;;;;;14.16;100.00;101460.94;4978244;28;20230;-77
2021/09/08 06:09:03;;;;;;;9.93;6.93;;;;;;;14.25;100.00;101454.63;4960259;28;20191;-77
2021/09/08 06:11:28;;;;;;;10.77;7.67;;;;;;;14.35;100.00;101459.25;4977854;28;20240;-78
2021/09/08 06:13:56;;;;;;;10.47;7.87;;;;;;;14.43;100.00;101459.53;5001276;28;20217;-77
2021/09/08 06:16:26;;;;;;;8.73;7.00;;;;;;;14.52;100.00;101454.28;5015159;28;20222;-78
2021/09/08 06:18:55;;;;;;;8.10;7.30;;;;;;;14.65;100.00;101452.59;4997802;28;20216;-79
2021/09/08 06:21:21;;;;;;;8.93;6.97;;;;;;;14.78;100.00;101451.16;4998588;28;20618;-79
2021/09/08 06:23:50;;;;;;;9.27;7.63;;;;;;;15.02;100.00;101453.78;4979979;28;20170;-78
2021/09/08 06:26:16;;;;;;;8.97;7.57;;;;;;;14.98;100.00;101456.56;4965760;28;20221;-78
2021/09/08 06:28:44;;;;;;;9.90;8.60;;;;;;;15.20;100.00;101455.09;4996577;28;20189;-79
2021/09/08 06:31:10;;;;;;;10.25;8.65;;;;;;;15.46;100.00;101446.44;4947877;28;20283;-77
2021/09/08 06:33:39;;;;;;;12.53;9.50;;;;;;;15.66;100.00;101454.47;4964238;28;20596;-79
2021/09/08 06:36:09;;;;;;;10.85;9.75;;;;;;;15.93;100.00;101455.63;4996871;28;20596;-78
2021/09/08 06:38:35;;;;;;;11.13;9.20;;;;;;;16.09;100.00;101449.72;4998651;28;20657;-79
2021/09/08 06:41:01;;;;;;;11.40;10.02;;;;;;;16.29;100.00;101444.88;4995680;28;20284;-77
2021/09/08 06:43:27;;;;;;;10.90;9.68;;;;;;;16.50;100.00;101451.78;4994418;28;20833;-77
2021/09/08 06:45:55;;;;;;;13.05;9.65;;;;;;;16.69;100.00;101438.94;4958593;28;20225;-76
2021/09/08 06:48:21;;;;;;;10.98;9.68;;;;;;;16.84;100.00;101436.81;4973716;28;20198;-77
2021/09/08 06:50:51;;;;;;;13.57;10.48;;;;;;;16.87;100.00;101433.50;4993242;28;20221;-77
2021/09/08 06:53:19;;;;;;;12.40;10.35;;;;;;;17.04;100.00;101437.34;4994500;28;20275;-78
2021/09/08 06:55:44;;;;;;;10.95;9.82;;;;;;;17.22;100.00;101436.59;4961484;28;20690;-78
2021/09/08 06:58:12;;;;;;;12.80;10.10;;;;;;;17.31;100.00;101437.56;4994441;28;20177;-77
2021/09/08 07:00:42;;;;;;;12.65;9.48;;;;;;;17.43;100.00;101430.47;4961021;28;20218;-78
2021/09/08 07:03:10;;;;;;;11.75;10.27;;;;;;;17.49;100.00;101432.06;4976719;28;20186;-78
2021/09/08 07:05:36;;;;;;;11.95;10.10;;;;;;;17.66;100.00;101440.56;4992547;28;20321;-77
2021/09/08 07:08:07;;;;;;;10.98;9.48;;;;;;;17.75;100.00;101441.53;4993834;28;20220;-76
2021/09/08 07:10:35;;;;;;;12.32;8.93;;;;;;;17.71;100.00;101439.66;4988398;28;20781;-78
2021/09/08 07:13:00;;;;;;;9.77;8.60;;;;;;;17.62;100.00;101445.03;4979898;28;20228;-77
2021/09/08 07:15:30;;;;;;;13.90;9.93;;;;;;;17.95;100.00;101432.94;4984061;28;20221;-78
2021/09/08 07:17:58;;;;;;;11.15;9.27;;;;;;;17.95;100.00;101428.25;4977192;28;20289;-79
2021/09/08 07:20:24;;;;;;;11.25;9.23;;;;;;;18.04;100.00;101429.19;4991895;28;20706;-77
2021/09/08 07:22:49;;;;;;;9.50;8.50;;;;;;;18.24;100.00;101426.91;4976535;28;20233;-78
2021/09/08 07:25:15;;;;;;;11.63;8.95;;;;;;;18.40;100.00;101425.47;4991591;28;20173;-79
2021/09/08 07:27:41;;;;;;;9.82;8.45;;;;;;;18.55;100.00;101425.19;4976085;28;20546;-77
2021/09/08 07:30:13;;;;;;;9.57;8.52;;;;;;;18.69;100.00;101415.81;4960077;28;20218;-78
2021/09/08 07:32:41;;;;;;;10.95;8.40;;;;;;;18.86;100.00;101413.22;4973193;28;20186;-78
2021/09/08 07:35:07;;;;;;;14.63;10.02;;;;;;;18.89;100.00;101407.94;4940625;28;20229;-77
2021/09/08 07:37:33;;;;;;;10.05;8.23;;;;;;;19.03;100.00;101413.47;4957237;28;20197;-78
2021/09/08 07:40:01;;;;;;;10.45;8.50;;;;;;;19.13;100.00;101414.03;4976762;28;20606;-78
2021/09/08 07:42:27;;;;;;;11.15;9.05;;;;;;;18.93;100.00;101417.19;4959308;28;20225;-78
2021/09/08 07:44:52;;;;;;;9.65;8.70;;;;;;;19.20;100.00;101421.88;4975447;28;20170;-77
2021/09/08 07:47:20;;;;;;;10.30;9.15;;;;;;;19.37;100.00;101409.88;4959348;28;20240;-76
2021/09/08 07:49:50;;;;;;;11.93;8.82;;;;;;;19.28;100.00;101410.94;4991486;28;20205;-79
2021/09/08 07:52:16;;;;;;;9.82;8.68;;;;;;;19.50;100.00;101413.72;4991601;28;20580;-78
2021/09/08 07:54:46;;;;;;;9.38;8.32;;;;;;;19.64;100.00;101407.03;4944634;28;20209;-78
2021/09/08 07:57:11;;;;;;;10.98;8.15;;;;;;;19.62;100.00;101412.03;4960065;28;20305;-78
2021/09/08 07:59:39;;;;;;;9.82;8.60;;;;;;;19.74;100.00;101409.50;4975118;28;20589;-78
2021/09/08 08:02:05;;;;;;;9.95;7.78;;;;;;;19.87;100.00;101412.25;4940593;28;20574;-77
2021/09/08 08:04:30;;;;;;;10.35;7.95;;;;;;;20.01;100.00;101401.94;4957368;28;20186;-77
2021/09/08 08:06:58;;;;;;;9.55;7.78;;;;;;;20.36;100.00;101395.47;4940805;28;20229;-78
2021/09/08 08:09:23;;;;;;;10.23;7.82;;;;;;;20.54;100.00;101392.44;4956474;28;20210;-78
2021/09/08 08:11:49;;;;;;;8.25;7.05;;;;;;;20.43;100.00;101390.28;4936482;28;20361;-79
2021/09/08 08:14:16;;;;;;;7.68;6.88;;;;;;;20.50;100.00;101389.50;4956505;28;20260;-78
2021/09/08 08:16:42;;;;;;;9.77;7.07;;;;;;;20.61;100.00;101387.28;4986684;28;20225;-77
2021/09/08 08:19:08;;;;;;;7.75;6.95;;;;;;;20.82;100.00;101382.78;4958563;28;20301;-77
2021/09/08 08:21:34;;;;;;;7.60;6.80;;;;;;;20.93;100.00;101390.44;4957753;28;20726;-77
2021/09/08 08:24:02;;;;;;;7.55;6.85;;;;;;;21.21;100.00;101387.09;4958858;28;20190;-79
2021/09/08 08:26:33;;;;;;;7.55;6.50;;;;;;;21.24;100.00;101380.91;4955192;28;20217;-79
2021/09/08 08:28:58;;;;;;;8.95;6.70;;;;;;;21.39;100.00;101386.78;4956282;28;20196;-78
2021/09/08 08:31:27;;;;;;;7.97;6.18;;;;;;;21.39;100.00;101384.00;4945531;28;20252;-78
2021/09/08 08:33:54;;;;;;;7.50;6.07;;;;;;;21.32;100.00;101383.66;4972147;28;20214;-77
2021/09/08 08:36:22;;;;;;;10.02;6.50;;;;;;;21.40;100.00;101385.66;4964698;28;20229;-78
2021/09/08 08:38:48;;;;;;;9.38;6.00;;;;;;;21.71;100.00;101383.50;4974867;28;20186;-77
2021/09/08 08:41:13;;;;;;;7.25;5.93;;;;;;;21.47;95.88;101377.69;4960095;28;20735;-78
2021/09/08 08:43:44;;;;;;;7.88;6.03;;;;;;;21.74;95.37;101382.88;4971810;28;20175;-78
2021/09/08 08:46:12;;;;;;;9.80;6.75;;;;;;;21.76;94.98;101388.88;4955728;28;20309;-79
2021/09/08 08:48:38;;;;;;;7.00;5.75;;;;;;;21.86;93.65;101383.78;4955556;28;20197;-78
2021/09/08 08:51:04;;;;;;;6.35;5.72;;;;;;;21.98;93.65;101380.34;4923975;28;20277;-77
2021/09/08 08:53:29;;;;;;;7.07;6.00;;;;;;;22.00;97.01;101376.94;4955610;28;20221;-77
2021/09/08 08:56:00;;;;;;;8.05;6.43;;;;;;;22.10;92.06;101373.78;4989025;28;20226;-77
2021/09/08 08:58:26;;;;;;;7.68;6.15;;;;;;;22.08;91.56;101376.09;4958513;28;20205;-77
2021/09/08 09:01:13;;;;;;;7.53;5.68;;;;;;;22.41;89.93;101374.34;4990152;28;20218;-78
2021/09/08 09:03:53;;;;;;;8.00;5.80;;;;;;;22.41;89.11;101374.34;4992520;28;20181;-78
2021/09/08 09:06:23;;;;;;;6.45;5.65;;;;;;;22.69;90.23;101364.44;4976503;28;20595;-78
2021/09/08 09:08:59;;;;;;;7.93;6.45;;;;;;;22.55;84.50;101370.22;4958787;28;20656;-79
2021/09/08 09:11:26;;;;;;;7.18;5.60;;;;;;;22.73;87.32;101368.16;4955388;28;20259;-78
2021/09/08 09:13:52;;;;;;;6.78;6.05;;;;;;;22.70;85.39;101366.06;4940061;28;20588;-78
2021/09/08 09:16:18;;;;;;;6.45;5.40;;;;;;;22.91;84.88;101370.50;4973227;28;20269;-77
2021/09/08 09:18:43;;;;;;;7.13;6.05;;;;;;;22.93;84.06;101366.28;4975014;28;20579;-78
2021/09/08 09:21:13;;;;;;;6.78;5.90;;;;;;;22.56;83.04;101365.47;4958906;28;20217;-77
2021/09/08 09:23:50;;;;;;;6.53;5.72;;;;;;;22.76;84.60;101365.53;4974639;28;20186;-77
2021/09/08 09:26:24;;;;;;;6.72;5.65;;;;;;;23.01;82.29;101368.16;4958594;28;20307;-77
2021/09/08 09:28:52;;;;;;;5.95;5.30;;;;;;;23.15;85.04;101359.56;4974206;28;20273;-77
2021/09/08 09:31:24;;;;;;;6.22;5.63;;;;;;;23.24;83.78;101372.22;4974380;28;20217;-77
2021/09/08 09:33:58;;;;;;;5.78;5.18;;;;;;;23.18;79.83;101354.97;4974409;28;20252;-78
2021/09/08 09:36:30;;;;;;;6.70;5.38;;;;;;;23.21;80.00;101359.84;4991221;28;20220;-78
2021/09/08 09:38:55;;;;;;;5.80;5.20;;;;;;;23.39;75.96;101349.44;4974562;28;20232;-78
2021/09/08 09:41:27;;;;;;;6.00;5.40;;;;;;;23.39;73.00;101347.47;4989910;28;20229;-77
2021/09/08 09:43:53;;;;;;;6.18;5.30;;;;;;;23.44;72.98;101349.22;4971288;28;20183;-77
2021/09/08 09:46:18;;;;;;;6.60;5.55;;;;;;;23.67;72.02;101338.22;4938293;28;20222;-76
2021/09/08 09:48:46;;;;;;;6.40;5.05;;;;;;;23.60;74.09;101340.75;4988571;28;20198;-78
2021/09/08 09:51:14;;;;;;;5.95;5.38;;;;;;;23.73;71.74;101342.41;4959276;28;20287;-78
2021/09/08 09:53:45;;;;;;;6.95;5.32;;;;;;;23.85;72.62;101339.69;4954722;28;20206;-78
2021/09/08 09:56:15;;;;;;;5.60;5.10;;;;;;;23.85;71.34;101330.56;4979472;28;20233;-79
2021/09/08 09:58:45;;;;;;;6.15;4.60;;;;;;;24.01;68.72;101332.31;4957145;28;20220;-78
2021/09/08 10:01:11;;;;;;;6.38;4.88;;;;;;;24.16;69.12;101329.69;4958054;28;20222;-77
2021/09/08 10:03:39;;;;;;;5.20;4.70;;;;;;;23.91;67.67;101318.88;4971398;28;20183;-78
2021/09/08 10:06:09;;;;;;;5.03;4.35;;;;;;;24.23;68.49;101318.81;4941521;28;20692;-78
2021/09/08 10:08:38;;;;;;;5.55;4.85;;;;;;;24.42;68.60;101311.53;4972347;28;20196;-78
2021/09/08 10:11:09;;;;;;;5.40;4.90;;;;;;;24.33;67.22;101306.44;4961356;28;20304;-78
2021/09/08 10:13:43;;;;;;;6.20;4.93;;;;;;;24.52;71.73;101299.97;4958412;28;20214;-78
2021/09/08 10:16:11;;;;;;;5.95;5.45;;;;;;;24.68;65.10;101303.63;4942155;28;20222;-77
2021/09/08 10:18:37;;;;;;;5.40;4.90;;;;;;;24.53;64.07;101298.78;4944298;28;20178;-77
2021/09/08 10:21:07;;;;;;;5.47;4.97;;;;;;;24.70;64.90;101298.53;4957833;28;20222;-77
2021/09/08 10:23:38;;;;;;;6.22;5.50;;;;;;;24.74;61.42;101291.94;4975730;28;20246;-77
2021/09/08 10:26:12;;;;;;;5.82;5.22;;;;;;;24.68;63.93;101286.94;4992391;28;20222;-78
2021/09/08 10:28:38;;;;;;;6.65;5.28;;;;;;;24.81;64.17;101285.78;4977945;28;20190;-78
2021/09/08 10:31:03;;;;;;;5.68;5.05;;;;;;;25.04;64.74;101284.94;4958013;28;20249;-79
2021/09/08 10:33:31;;;;;;;5.60;4.90;;;;;;;24.80;60.83;101284.16;4943176;28;20613;-78
2021/09/08 10:35:59;;;;;;;4.85;4.45;;;;;;;24.83;61.97;101286.22;4959079;28;20225;-78
2021/09/08 10:38:25;;;;;;;6.13;4.53;;;;;;;25.03;61.45;101282.50;4966794;28;20178;-78
2021/09/08 10:40:53;;;;;;;6.03;4.93;;;;;;;25.09;58.64;101275.50;4961841;28;20245;-77
2021/09/08 10:43:30;;;;;;;4.97;4.47;;;;;;;25.20;59.24;101275.47;4942586;28;20823;-77
2021/09/08 10:45:55;;;;;;;5.40;4.32;;;;;;;25.25;59.14;101275.22;4942523;28;20249;-78
2021/09/08 10:48:46;;;;;;;6.30;4.47;;;;;;;25.52;57.60;101264.06;4981255;28;20883;-77
2021/09/08 10:51:21;;;;;;;5.65;4.97;;;;;;;25.59;59.08;101267.06;4963107;28;20245;-79
2021/09/08 10:54:05;;;;;;;5.70;5.20;;;;;;;25.56;58.41;101262.19;4976047;28;20241;-78
2021/09/08 10:56:44;;;;;;;5.75;5.00;;;;;;;25.25;60.64;101247.38;4975325;28;20230;-78
2021/09/08 10:59:12;;;;;;;5.53;4.93;;;;;;;25.56;60.76;101253.03;4974630;28;20190;-77
2021/09/08 11:01:41;;;;;;;5.57;5.03;;;;;;;25.59;60.17;101241.22;4958002;28;20245;-77
2021/09/08 11:04:13;;;;;;;5.13;4.53;;;;;;;25.47;62.29;101257.94;4943161;28;20190;-78
2021/09/08 11:06:44;;;;;;;5.68;4.68;;;;;;;25.45;56.35;101249.16;4957380;28;20222;-77
2021/09/08 11:09:11;;;;;;;5.65;4.80;;;;;;;25.72;56.45;101251.13;4960024;28;20190;-78
2021/09/08 11:11:49;;;;;;;5.82;4.55;;;;;;;25.87;53.86;101247.53;4956726;28;20309;-77
2021/09/08 11:14:15;;;;;;;6.05;4.88;;;;;;;25.74;56.68;101252.34;4967432;28;20263;-78
2021/09/08 11:16:44;;;;;;;5.30;4.80;;;;;;;25.93;54.78;101241.31;4959305;28;20601;-76
2021/09/08 11:19:12;;;;;;;5.75;4.60;;;;;;;26.21;52.81;101242.88;4972778;28;20223;-77
2021/09/08 11:21:40;;;;;;;5.53;4.65;;;;;;;26.39;51.53;101230.97;4956963;28;20601;-77